sensor_id;sensor_type;location;lat;lon;timestamp;pressure;altitude;pressure_sealevel;temperature;humidity
48872;BME280;36154;51.674;7.824;2023-12-29T00:01:50;100064.31;;;19.77;61.85
48872;BME280;36154;51.674;7.824;2023-12-29T00:04:15;100067.75;;;19.78;61.68
48872;BME280;36154;51.674;7.824;2023-12-29T00:06:40;100066.91;;;19.77;61.71
48872;BME280;36154;51.674;7.824;2023-12-29T00:09:06;100066.91;;;19.77;61.77
48872;BME280;36154;51.674;7.824;2023-12-29T00:11:31;100072.06;;;19.77;61.74
48872;BME280;36154;51.674;7.824;2023-12-29T00:13:57;100066.91;;;19.77;61.38
48872;BME280;36154;51.674;7.824;2023-12-29T00:16:22;100064.38;;;19.75;61.64
48872;BME280;36154;51.674;7.824;2023-12-29T00:18:47;100053.97;;;19.77;61.46
48872;BME280;36154;51.674;7.824;2023-12-29T00:21:13;100044.53;;;19.76;62.01
48872;BME280;36154;51.674;7.824;2023-12-29T00:23:38;100051.41;;;19.77;61.73
48872;BME280;36154;51.674;7.824;2023-12-29T00:26:03;100039.34;;;19.76;61.88
48872;BME280;36154;51.674;7.824;2023-12-29T00:28:29;100035.88;;;19.77;61.59
48872;BME280;36154;51.674;7.824;2023-12-29T00:30:54;100046.22;;;19.77;61.72
48872;BME280;36154;51.674;7.824;2023-12-29T00:33:19;100045.38;;;19.77;61.78
48872;BME280;36154;51.674;7.824;2023-12-29T00:35:44;100050.56;;;19.77;61.85
48872;BME280;36154;51.674;7.824;2023-12-29T00:38:10;100038.47;;;19.77;61.96
48872;BME280;36154;51.674;7.824;2023-12-29T00:40:35;100049.69;;;19.76;61.93
48872;BME280;36154;51.674;7.824;2023-12-29T00:43:01;100041.06;;;19.77;61.55
48872;BME280;36154;51.674;7.824;2023-12-29T00:45:26;100048.81;;;19.77;61.63
48872;BME280;36154;51.674;7.824;2023-12-29T00:47:57;100037.69;;;19.75;61.46
48872;BME280;36154;51.674;7.824;2023-12-29T00:50:22;100028.19;;;19.75;61.57
48872;BME280;36154;51.674;7.824;2023-12-29T00:52:47;100019.53;;;19.77;61.57
48872;BME280;36154;51.674;7.824;2023-12-29T00:55:13;100025.56;;;19.77;61.59
48872;BME280;36154;51.674;7.824;2023-12-29T00:57:38;100026.44;;;19.76;61.40
48872;BME280;36154;51.674;7.824;2023-12-29T01:00:04;100015.22;;;19.77;61.17
48872;BME280;36154;51.674;7.824;2023-12-29T01:02:30;100014.38;;;19.77;61.38
48872;BME280;36154;51.674;7.824;2023-12-29T01:04:55;100028.13;;;19.77;61.16
48872;BME280;36154;51.674;7.824;2023-12-29T01:07:20;100025.56;;;19.77;61.21
48872;BME280;36154;51.674;7.824;2023-12-29T01:09:46;100022.13;;;19.77;61.43
48872;BME280;36154;51.674;7.824;2023-12-29T01:12:11;100035.88;;;19.77;61.13
48872;BME280;36154;51.674;7.824;2023-12-29T01:14:36;100028.13;;;19.77;60.44
48872;BME280;36154;51.674;7.824;2023-12-29T01:17:02;100029.88;;;19.77;61.07
48872;BME280;36154;51.674;7.824;2023-12-29T01:19:27;100012.63;;;19.77;61.19
48872;BME280;36154;51.674;7.824;2023-12-29T01:21:52;100002.28;;;19.77;60.97
48872;BME280;36154;51.674;7.824;2023-12-29T01:24:18;100016.00;;;19.79;61.58
48872;BME280;36154;51.674;7.824;2023-12-29T01:26:43;99991.94;;;19.77;61.28
48872;BME280;36154;51.674;7.824;2023-12-29T01:29:08;100001.41;;;19.78;61.40
48872;BME280;36154;51.674;7.824;2023-12-29T01:31:33;99996.22;;;19.78;61.44
48872;BME280;36154;51.674;7.824;2023-12-29T01:33:59;99996.22;;;19.78;61.34
48872;BME280;36154;51.674;7.824;2023-12-29T01:36:24;99999.69;;;19.77;61.32
48872;BME280;36154;51.674;7.824;2023-12-29T01:38:50;99988.47;;;19.78;61.41
48872;BME280;36154;51.674;7.824;2023-12-29T01:41:15;99976.38;;;19.79;61.15
48872;BME280;36154;51.674;7.824;2023-12-29T01:46:21;99999.66;;;19.79;60.96
48872;BME280;36154;51.674;7.824;2023-12-29T01:48:47;100003.97;;;19.78;61.22
48872;BME280;36154;51.674;7.824;2023-12-29T01:51:14;99987.56;;;19.79;61.25
48872;BME280;36154;51.674;7.824;2023-12-29T01:53:40;99998.72;;;19.80;61.31
48872;BME280;36154;51.674;7.824;2023-12-29T01:56:06;99990.16;;;19.79;61.20
48872;BME280;36154;51.674;7.824;2023-12-29T01:58:32;99981.50;;;19.80;61.12
48872;BME280;36154;51.674;7.824;2023-12-29T02:00:57;99986.66;;;19.80;60.90
48872;BME280;36154;51.674;7.824;2023-12-29T02:03:23;99991.84;;;19.80;60.83
48872;BME280;36154;51.674;7.824;2023-12-29T02:05:49;99992.72;;;19.79;60.57
48872;BME280;36154;51.674;7.824;2023-12-29T02:08:15;99973.75;;;19.80;60.86
48872;BME280;36154;51.674;7.824;2023-12-29T02:10:41;99978.91;;;19.80;61.01
48872;BME280;36154;51.674;7.824;2023-12-29T02:13:06;99984.09;;;19.80;60.68
48872;BME280;36154;51.674;7.824;2023-12-29T02:15:31;99978.91;;;19.80;61.02
48872;BME280;36154;51.674;7.824;2023-12-29T02:18:01;99966.00;;;19.80;60.91
48872;BME280;36154;51.674;7.824;2023-12-29T02:20:28;99978.91;;;19.80;60.79
48872;BME280;36154;51.674;7.824;2023-12-29T02:22:53;99974.59;;;19.81;60.89
48872;BME280;36154;51.674;7.824;2023-12-29T02:25:18;99978.91;;;19.80;60.93
48872;BME280;36154;51.674;7.824;2023-12-29T02:27:52;99978.91;;;19.80;60.85
48872;BME280;36154;51.674;7.824;2023-12-29T02:30:41;99987.50;;;19.81;60.56
48872;BME280;36154;51.674;7.824;2023-12-29T02:33:16;99976.34;;;19.80;60.97
48872;BME280;36154;51.674;7.824;2023-12-29T02:35:45;99987.50;;;19.81;61.06
48872;BME280;36154;51.674;7.824;2023-12-29T02:38:11;100003.84;;;19.81;61.09
48872;BME280;36154;51.674;7.824;2023-12-29T02:40:37;99995.25;;;19.81;60.83
48872;BME280;36154;51.674;7.824;2023-12-29T02:43:03;100001.25;;;19.81;61.11
48872;BME280;36154;51.674;7.824;2023-12-29T02:45:28;100010.78;;;19.81;60.76
48872;BME280;36154;51.674;7.824;2023-12-29T02:47:53;100016.78;;;19.81;60.07
48872;BME280;36154;51.674;7.824;2023-12-29T02:50:19;100011.59;;;19.81;60.11
48872;BME280;36154;51.674;7.824;2023-12-29T02:52:44;100008.13;;;19.82;60.14
48872;BME280;36154;51.674;7.824;2023-12-29T02:55:10;100008.13;;;19.82;60.42
48872;BME280;36154;51.674;7.824;2023-12-29T02:57:35;99997.78;;;19.82;60.95
48872;BME280;36154;51.674;7.824;2023-12-29T03:00:00;100013.31;;;19.82;61.05
48872;BME280;36154;51.674;7.824;2023-12-29T03:02:26;100006.38;;;19.83;60.90
48872;BME280;36154;51.674;7.824;2023-12-29T03:04:51;100002.97;;;19.82;61.10
48872;BME280;36154;51.674;7.824;2023-12-29T03:07:16;100002.97;;;19.82;60.93
48872;BME280;36154;51.674;7.824;2023-12-29T03:09:42;99999.50;;;19.83;60.60
48872;BME280;36154;51.674;7.824;2023-12-29T03:12:07;100001.16;;;19.84;60.82
48872;BME280;36154;51.674;7.824;2023-12-29T03:14:33;100025.34;;;19.83;61.06
48872;BME280;36154;51.674;7.824;2023-12-29T03:16:58;100019.31;;;19.83;60.76
48872;BME280;36154;51.674;7.824;2023-12-29T03:19:24;99999.50;;;19.83;60.73
48872;BME280;36154;51.674;7.824;2023-12-29T03:21:49;99983.13;;;19.83;60.82
48872;BME280;36154;51.674;7.824;2023-12-29T03:24:15;99966.78;;;19.82;60.70
48872;BME280;36154;51.674;7.824;2023-12-29T03:26:40;99962.44;;;19.83;60.92
48872;BME280;36154;51.674;7.824;2023-12-29T03:29:06;99973.66;;;19.83;61.05
48872;BME280;36154;51.674;7.824;2023-12-29T03:31:31;99968.47;;;19.83;60.99
48872;BME280;36154;51.674;7.824;2023-12-29T03:33:57;99964.13;;;19.84;60.44
48872;BME280;36154;51.674;7.824;2023-12-29T03:36:22;99959.84;;;19.83;60.93
48872;BME280;36154;51.674;7.824;2023-12-29T03:38:47;99963.31;;;19.83;60.87
48872;BME280;36154;51.674;7.824;2023-12-29T03:41:12;99968.47;;;19.83;61.08
48872;BME280;36154;51.674;7.824;2023-12-29T03:43:38;99960.72;;;19.83;60.99
48872;BME280;36154;51.674;7.824;2023-12-29T03:46:03;99954.69;;;19.83;61.31
48872;BME280;36154;51.674;7.824;2023-12-29T03:48:28;99958.13;;;19.83;60.59
48872;BME280;36154;51.674;7.824;2023-12-29T03:50:53;99947.78;;;19.83;60.59
48872;BME280;36154;51.674;7.824;2023-12-29T03:53:18;99942.63;;;19.83;60.40
48872;BME280;36154;51.674;7.824;2023-12-29T03:55:44;99947.78;;;19.83;60.74
48872;BME280;36154;51.674;7.824;2023-12-29T03:58:10;99944.34;;;19.83;60.99
48872;BME280;36154;51.674;7.824;2023-12-29T04:00:36;99942.63;;;19.83;60.80
48872;BME280;36154;51.674;7.824;2023-12-29T04:03:01;99925.41;;;19.82;60.77
48872;BME280;36154;51.674;7.824;2023-12-29T04:05:26;99937.44;;;19.83;60.86
48872;BME280;36154;51.674;7.824;2023-12-29T04:07:52;99932.28;;;19.83;60.92
48872;BME280;36154;51.674;7.824;2023-12-29T04:10:17;99936.59;;;19.83;60.74
48872;BME280;36154;51.674;7.824;2023-12-29T04:12:42;99927.13;;;19.83;60.92
48872;BME280;36154;51.674;7.824;2023-12-29T04:15:08;99920.19;;;19.84;60.53
48872;BME280;36154;51.674;7.824;2023-12-29T04:17:33;99921.94;;;19.83;60.68
48872;BME280;36154;51.674;7.824;2023-12-29T04:19:58;99939.13;;;19.84;61.00
48872;BME280;36154;51.674;7.824;2023-12-29T04:22:25;99935.75;;;19.82;60.65
48872;BME280;36154;51.674;7.824;2023-12-29T04:24:50;99931.41;;;19.83;60.55
48872;BME280;36154;51.674;7.824;2023-12-29T04:27:16;99932.28;;;19.83;60.48
48872;BME280;36154;51.674;7.824;2023-12-29T04:29:43;99929.69;;;19.83;60.44
48872;BME280;36154;51.674;7.824;2023-12-29T04:32:09;99940.03;;;19.83;60.67
48872;BME280;36154;51.674;7.824;2023-12-29T04:34:34;99935.75;;;19.82;60.37
48872;BME280;36154;51.674;7.824;2023-12-29T04:36:59;99925.41;;;19.82;60.68
48872;BME280;36154;51.674;7.824;2023-12-29T04:39:24;99925.41;;;19.82;60.07
48872;BME280;36154;51.674;7.824;2023-12-29T04:41:50;99912.50;;;19.82;60.39
48872;BME280;36154;51.674;7.824;2023-12-29T04:44:15;99914.25;;;19.82;60.41
48872;BME280;36154;51.674;7.824;2023-12-29T04:46:40;99921.94;;;19.83;60.17
48872;BME280;36154;51.674;7.824;2023-12-29T04:49:05;99921.94;;;19.83;60.06
48872;BME280;36154;51.674;7.824;2023-12-29T04:51:31;99916.78;;;19.83;60.14
48872;BME280;36154;51.674;7.824;2023-12-29T04:53:56;99926.25;;;19.83;60.43
48872;BME280;36154;51.674;7.824;2023-12-29T04:56:21;99910.75;;;19.83;60.65
48872;BME280;36154;51.674;7.824;2023-12-29T04:58:46;99924.53;;;19.83;60.50
48872;BME280;36154;51.674;7.824;2023-12-29T05:01:12;99927.13;;;19.83;60.73
48872;BME280;36154;51.674;7.824;2023-12-29T05:03:37;99934.88;;;19.83;60.45
48872;BME280;36154;51.674;7.824;2023-12-29T05:06:02;99927.13;;;19.83;60.31
48872;BME280;36154;51.674;7.824;2023-12-29T05:08:28;99927.13;;;19.83;60.26
48872;BME280;36154;51.674;7.824;2023-12-29T05:10:53;99940.94;;;19.82;60.13
48872;BME280;36154;51.674;7.824;2023-12-29T05:13:18;99937.44;;;19.83;60.35
48872;BME280;36154;51.674;7.824;2023-12-29T05:15:44;99937.44;;;19.83;60.12
48872;BME280;36154;51.674;7.824;2023-12-29T05:18:09;99932.28;;;19.83;60.03
48872;BME280;36154;51.674;7.824;2023-12-29T05:20:34;99945.22;;;19.83;60.02
48872;BME280;36154;51.674;7.824;2023-12-29T05:22:59;99940.94;;;19.82;60.27
48872;BME280;36154;51.674;7.824;2023-12-29T05:25:24;99947.78;;;19.83;59.77
48872;BME280;36154;51.674;7.824;2023-12-29T05:27:50;99946.94;;;19.83;60.31
48872;BME280;36154;51.674;7.824;2023-12-29T05:30:15;99950.38;;;19.83;60.12
48872;BME280;36154;51.674;7.824;2023-12-29T05:32:41;99944.34;;;19.83;60.38
48872;BME280;36154;51.674;7.824;2023-12-29T05:35:06;99940.94;;;19.82;59.87
48872;BME280;36154;51.674;7.824;2023-12-29T05:37:31;99946.09;;;19.82;60.06
48872;BME280;36154;51.674;7.824;2023-12-29T05:39:57;99937.44;;;19.83;60.06
48872;BME280;36154;51.674;7.824;2023-12-29T05:42:22;99944.34;;;19.83;59.87
48872;BME280;36154;51.674;7.824;2023-12-29T05:44:47;99934.94;;;19.82;59.74
48872;BME280;36154;51.674;7.824;2023-12-29T05:47:12;99933.13;;;19.84;60.03
48872;BME280;36154;51.674;7.824;2023-12-29T05:49:38;99931.41;;;19.83;59.88
48872;BME280;36154;51.674;7.824;2023-12-29T05:52:06;99933.16;;;19.82;59.97
48872;BME280;36154;51.674;7.824;2023-12-29T05:54:31;99935.75;;;19.82;60.07
48872;BME280;36154;51.674;7.824;2023-12-29T05:56:57;99937.44;;;19.83;60.02
48872;BME280;36154;51.674;7.824;2023-12-29T05:59:23;99934.88;;;19.83;59.84
48872;BME280;36154;51.674;7.824;2023-12-29T06:01:48;99944.34;;;19.83;59.70
48872;BME280;36154;51.674;7.824;2023-12-29T06:04:13;99938.34;;;19.82;59.60
48872;BME280;36154;51.674;7.824;2023-12-29T06:06:38;99931.41;;;19.83;59.80
48872;BME280;36154;51.674;7.824;2023-12-29T06:09:03;99927.13;;;19.83;60.17
48872;BME280;36154;51.674;7.824;2023-12-29T06:11:29;99924.53;;;19.83;59.74
48872;BME280;36154;51.674;7.824;2023-12-29T06:13:54;99940.03;;;19.83;59.45
48872;BME280;36154;51.674;7.824;2023-12-29T06:16:20;99945.22;;;19.83;59.20
48872;BME280;36154;51.674;7.824;2023-12-29T06:18:46;99942.63;;;19.83;59.47
48872;BME280;36154;51.674;7.824;2023-12-29T06:21:11;99941.75;;;19.83;59.46
48872;BME280;36154;51.674;7.824;2023-12-29T06:23:36;99927.13;;;19.83;59.53
48872;BME280;36154;51.674;7.824;2023-12-29T06:26:02;99951.25;;;19.82;59.74
48872;BME280;36154;51.674;7.824;2023-12-29T06:28:27;99953.78;;;19.84;59.88
48872;BME280;36154;51.674;7.824;2023-12-29T06:30:54;99952.09;;;19.83;59.36
48872;BME280;36154;51.674;7.824;2023-12-29T06:33:19;99945.22;;;19.83;59.53
48872;BME280;36154;51.674;7.824;2023-12-29T06:35:49;99947.78;;;19.83;59.23
48872;BME280;36154;51.674;7.824;2023-12-29T06:38:14;99947.78;;;19.83;59.42
48872;BME280;36154;51.674;7.824;2023-12-29T06:40:40;99961.56;;;19.84;59.43
48872;BME280;36154;51.674;7.824;2023-12-29T06:43:05;99960.72;;;19.83;59.65
48872;BME280;36154;51.674;7.824;2023-12-29T06:45:30;99956.38;;;19.84;59.56
48872;BME280;36154;51.674;7.824;2023-12-29T06:47:55;99970.13;;;19.84;59.79
48872;BME280;36154;51.674;7.824;2023-12-29T06:50:22;99959.81;;;19.84;59.20
48872;BME280;36154;51.674;7.824;2023-12-29T06:52:47;99953.78;;;19.84;59.06
48872;BME280;36154;51.674;7.824;2023-12-29T06:55:13;99963.31;;;19.83;59.18
48872;BME280;36154;51.674;7.824;2023-12-29T06:57:38;99956.38;;;19.84;59.21
48872;BME280;36154;51.674;7.824;2023-12-29T07:00:04;99942.63;;;19.83;59.26
48872;BME280;36154;51.674;7.824;2023-12-29T07:02:29;99958.13;;;19.83;59.37
48872;BME280;36154;51.674;7.824;2023-12-29T07:04:55;99958.97;;;19.84;59.54
48872;BME280;36154;51.674;7.824;2023-12-29T07:07:21;99959.81;;;19.84;59.54
48872;BME280;36154;51.674;7.824;2023-12-29T07:09:46;99956.38;;;19.84;59.27
48872;BME280;36154;51.674;7.824;2023-12-29T07:12:11;99969.31;;;19.84;59.36
48872;BME280;36154;51.674;7.824;2023-12-29T07:14:36;99971.06;;;19.83;59.35
48872;BME280;36154;51.674;7.824;2023-12-29T07:17:02;99975.31;;;19.84;59.37
48872;BME280;36154;51.674;7.824;2023-12-29T07:19:28;99969.31;;;19.84;59.18
48872;BME280;36154;51.674;7.824;2023-12-29T07:21:59;99964.13;;;19.84;59.04
48872;BME280;36154;51.674;7.824;2023-12-29T07:24:24;99972.72;;;19.84;58.95
48872;BME280;36154;51.674;7.824;2023-12-29T07:26:49;99961.56;;;19.84;58.42
48872;BME280;36154;51.674;7.824;2023-12-29T07:29:15;99958.97;;;19.84;59.10
48872;BME280;36154;51.674;7.824;2023-12-29T07:31:40;99972.72;;;19.84;59.06
48872;BME280;36154;51.674;7.824;2023-12-29T07:34:05;99958.13;;;19.83;59.11
48872;BME280;36154;51.674;7.824;2023-12-29T07:36:30;99964.97;;;19.84;59.10
48872;BME280;36154;51.674;7.824;2023-12-29T07:38:56;99966.72;;;19.84;59.04
48872;BME280;36154;51.674;7.824;2023-12-29T07:41:21;99968.47;;;19.83;58.95
48872;BME280;36154;51.674;7.824;2023-12-29T07:43:46;99969.31;;;19.84;59.20
48872;BME280;36154;51.674;7.824;2023-12-29T07:46:12;99974.47;;;19.84;58.88
48872;BME280;36154;51.674;7.824;2023-12-29T07:48:37;99970.13;;;19.84;59.05
48872;BME280;36154;51.674;7.824;2023-12-29T07:51:05;99961.56;;;19.84;58.98
48872;BME280;36154;51.674;7.824;2023-12-29T07:53:30;99952.03;;;19.84;58.59
48872;BME280;36154;51.674;7.824;2023-12-29T07:55:56;99957.22;;;19.84;58.61
48872;BME280;36154;51.674;7.824;2023-12-29T07:58:21;99959.81;;;19.84;58.60
48872;BME280;36154;51.674;7.824;2023-12-29T08:00:46;99954.63;;;19.84;58.77
48872;BME280;36154;51.674;7.824;2023-12-29T08:03:11;99959.81;;;19.84;58.80
48872;BME280;36154;51.674;7.824;2023-12-29T08:05:37;99952.03;;;19.84;58.67
48872;BME280;36154;51.674;7.824;2023-12-29T08:08:02;99956.31;;;19.85;58.59
48872;BME280;36154;51.674;7.824;2023-12-29T08:10:28;99955.50;;;19.85;58.61
48872;BME280;36154;51.674;7.824;2023-12-29T08:12:53;99951.16;;;19.85;58.67
48872;BME280;36154;51.674;7.824;2023-12-29T08:15:19;99950.31;;;19.85;58.88
48872;BME280;36154;51.674;7.824;2023-12-29T08:17:44;99961.50;;;19.85;58.90
48872;BME280;36154;51.674;7.824;2023-12-29T08:20:10;99946.00;;;19.85;59.02
48872;BME280;36154;51.674;7.824;2023-12-29T08:22:35;99940.81;;;19.85;58.60
48872;BME280;36154;51.674;7.824;2023-12-29T08:25:01;99948.56;;;19.85;58.68
48872;BME280;36154;51.674;7.824;2023-12-29T08:27:26;99953.75;;;19.85;58.58
48872;BME280;36154;51.674;7.824;2023-12-29T08:29:51;99964.91;;;19.86;58.63
48872;BME280;36154;51.674;7.824;2023-12-29T08:32:17;99961.50;;;19.85;58.42
48872;BME280;36154;51.674;7.824;2023-12-29T08:34:42;99974.41;;;19.85;58.23
48872;BME280;36154;51.674;7.824;2023-12-29T08:37:07;99969.25;;;19.85;58.27
48872;BME280;36154;51.674;7.824;2023-12-29T08:39:32;99972.66;;;19.86;58.32
48872;BME280;36154;51.674;7.824;2023-12-29T08:41:58;99967.50;;;19.86;57.93
48872;BME280;36154;51.674;7.824;2023-12-29T08:44:23;99967.50;;;19.86;58.20
48872;BME280;36154;51.674;7.824;2023-12-29T08:46:48;99965.84;;;19.85;58.22
48872;BME280;36154;51.674;7.824;2023-12-29T08:49:14;99970.09;;;19.86;57.88
48872;BME280;36154;51.674;7.824;2023-12-29T08:51:39;99968.34;;;19.86;57.48
48872;BME280;36154;51.674;7.824;2023-12-29T08:54:04;99966.66;;;19.85;57.92
48872;BME280;36154;51.674;7.824;2023-12-29T08:56:30;99969.19;;;19.87;57.03
48872;BME280;36154;51.674;7.824;2023-12-29T08:58:55;99976.09;;;19.86;57.14
48872;BME280;36154;51.674;7.824;2023-12-29T09:01:20;99970.91;;;19.86;57.39
48872;BME280;36154;51.674;7.824;2023-12-29T09:03:46;99957.16;;;19.86;57.73
48872;BME280;36154;51.674;7.824;2023-12-29T09:06:11;99936.44;;;19.87;57.52
48872;BME280;36154;51.674;7.824;2023-12-29T09:08:36;99918.34;;;19.87;57.37
48872;BME280;36154;51.674;7.824;2023-12-29T09:11:02;99941.59;;;19.87;57.10
48872;BME280;36154;51.674;7.824;2023-12-29T09:13:27;99945.88;;;19.88;57.10
48872;BME280;36154;51.674;7.824;2023-12-29T09:15:54;99941.50;;;19.90;57.18
48872;BME280;36154;51.674;7.824;2023-12-29T09:18:19;99954.41;;;19.90;56.98
48872;BME280;36154;51.674;7.824;2023-12-29T09:20:45;99957.00;;;19.90;56.96
48872;BME280;36154;51.674;7.824;2023-12-29T09:23:10;99971.63;;;19.91;57.43
48872;BME280;36154;51.674;7.824;2023-12-29T09:25:35;99968.94;;;19.93;57.56
48872;BME280;36154;51.674;7.824;2023-12-29T09:28:01;99968.13;;;19.92;57.14
48872;BME280;36154;51.674;7.824;2023-12-29T09:30:26;99983.63;;;19.92;57.09
48872;BME280;36154;51.674;7.824;2023-12-29T09:32:51;99981.81;;;19.94;57.22
48872;BME280;36154;51.674;7.824;2023-12-29T09:35:16;99984.41;;;19.94;56.84
48872;BME280;36154;51.674;7.824;2023-12-29T09:37:42;99976.66;;;19.94;57.20
48872;BME280;36154;51.674;7.824;2023-12-29T09:40:09;99962.84;;;19.96;57.24
48872;BME280;36154;51.674;7.824;2023-12-29T09:42:37;99967.13;;;19.97;56.98
48872;BME280;36154;51.674;7.824;2023-12-29T09:45:07;99974.88;;;19.97;57.04
48872;BME280;36154;51.674;7.824;2023-12-29T09:47:36;99969.72;;;19.97;57.07
48872;BME280;36154;51.674;7.824;2023-12-29T09:50:05;99969.72;;;19.97;57.13
48872;BME280;36154;51.674;7.824;2023-12-29T09:52:30;99957.66;;;19.96;56.96
48872;BME280;36154;51.674;7.824;2023-12-29T09:54:57;99973.13;;;19.97;56.89
48872;BME280;36154;51.674;7.824;2023-12-29T09:57:23;99976.53;;;19.98;56.66
48872;BME280;36154;51.674;7.824;2023-12-29T09:59:49;99975.78;;;19.96;56.66
48872;BME280;36154;51.674;7.824;2023-12-29T10:02:19;99980.88;;;19.97;56.60
48872;BME280;36154;51.674;7.824;2023-12-29T10:04:45;99990.41;;;19.97;56.63
48872;BME280;36154;51.674;7.824;2023-12-29T10:07:15;99998.16;;;19.97;56.38
48872;BME280;36154;51.674;7.824;2023-12-29T10:09:45;99989.53;;;19.96;56.56
48872;BME280;36154;51.674;7.824;2023-12-29T10:12:11;99980.88;;;19.97;56.33
48872;BME280;36154;51.674;7.824;2023-12-29T10:14:49;99990.41;;;19.97;56.46
48872;BME280;36154;51.674;7.824;2023-12-29T10:17:28;99972.28;;;19.97;56.69
48872;BME280;36154;51.674;7.824;2023-12-29T10:20:08;99988.63;;;19.97;56.63
48872;BME280;36154;51.674;7.824;2023-12-29T10:25:09;99991.22;;;19.97;56.89
48872;BME280;36154;51.674;7.824;2023-12-29T10:27:35;99986.88;;;19.98;57.17
48872;BME280;36154;51.674;7.824;2023-12-29T10:30:00;99973.97;;;19.98;56.95
48872;BME280;36154;51.674;7.824;2023-12-29T10:32:25;99968.72;;;19.99;57.13
48872;BME280;36154;51.674;7.824;2023-12-29T10:35:07;99967.91;;;19.99;57.18
48872;BME280;36154;51.674;7.824;2023-12-29T10:37:32;99961.91;;;19.98;57.04
48872;BME280;36154;51.674;7.824;2023-12-29T10:39:58;99955.81;;;19.99;57.07
48872;BME280;36154;51.674;7.824;2023-12-29T10:42:23;99960.16;;;19.99;57.00
48872;BME280;36154;51.674;7.824;2023-12-29T10:45:04;99969.56;;;20.00;57.13
48872;BME280;36154;51.674;7.824;2023-12-29T10:47:29;99972.16;;;20.00;57.25
48872;BME280;36154;51.674;7.824;2023-12-29T10:49:59;99959.22;;;20.00;56.91
48872;BME280;36154;51.674;7.824;2023-12-29T10:52:25;99967.91;;;19.99;57.03
48872;BME280;36154;51.674;7.824;2023-12-29T10:55:03;99969.56;;;20.00;54.04
48872;BME280;36154;51.674;7.824;2023-12-29T10:57:29;99964.66;;;19.93;51.41
48872;BME280;36154;51.674;7.824;2023-12-29T10:59:55;99963.25;;;19.85;50.35
48872;BME280;36154;51.674;7.824;2023-12-29T11:02:21;99968.69;;;19.77;50.34
48872;BME280;36154;51.674;7.824;2023-12-29T11:04:46;99956.75;;;19.73;51.31
48872;BME280;36154;51.674;7.824;2023-12-29T11:07:12;99965.44;;;19.72;52.08
48872;BME280;36154;51.674;7.824;2023-12-29T11:09:38;99959.34;;;19.73;52.46
48872;BME280;36154;51.674;7.824;2023-12-29T11:12:04;99959.34;;;19.73;52.83
48872;BME280;36154;51.674;7.824;2023-12-29T11:14:31;99960.19;;;19.73;52.83
48872;BME280;36154;51.674;7.824;2023-12-29T11:16:58;99957.56;;;19.75;53.26
48872;BME280;36154;51.674;7.824;2023-12-29T11:19:25;99957.50;;;19.77;53.34
48872;BME280;36154;51.674;7.824;2023-12-29T11:21:53;99952.28;;;19.78;53.68
48872;BME280;36154;51.674;7.824;2023-12-29T11:24:19;99953.91;;;19.81;53.57
48872;BME280;36154;51.674;7.824;2023-12-29T11:26:45;99961.59;;;19.82;53.19
48872;BME280;36154;51.674;7.824;2023-12-29T11:29:11;99951.25;;;19.82;53.84
48872;BME280;36154;51.674;7.824;2023-12-29T11:31:38;99956.31;;;19.85;54.07
48872;BME280;36154;51.674;7.824;2023-12-29T11:34:09;99958.00;;;19.86;54.05
48872;BME280;36154;51.674;7.824;2023-12-29T11:36:40;99958.81;;;19.88;53.99
48872;BME280;36154;51.674;7.824;2023-12-29T11:39:30;99954.41;;;19.90;53.85
48872;BME280;36154;51.674;7.824;2023-12-29T11:42:03;99957.78;;;19.92;53.98
48872;BME280;36154;51.674;7.824;2023-12-29T11:44:30;99956.88;;;19.93;53.89
48872;BME280;36154;51.674;7.824;2023-12-29T11:46:56;99961.09;;;19.96;53.67
48872;BME280;36154;51.674;7.824;2023-12-29T11:49:25;99960.25;;;19.96;53.59
48872;BME280;36154;51.674;7.824;2023-12-29T11:51:50;99958.44;;;19.98;53.74
48872;BME280;36154;51.674;7.824;2023-12-29T11:54:25;99954.91;;;20.00;53.62
48872;BME280;36154;51.674;7.824;2023-12-29T11:56:52;99955.75;;;20.01;53.62
48872;BME280;36154;51.674;7.824;2023-12-29T12:01:47;99953.94;;;20.03;53.75
48872;BME280;36154;51.674;7.824;2023-12-29T12:04:39;99939.28;;;20.03;53.80
48872;BME280;36154;51.674;7.824;2023-12-29T12:07:07;99936.66;;;20.05;53.83
48872;BME280;36154;51.674;7.824;2023-12-29T12:09:34;99945.31;;;20.04;54.04
48872;BME280;36154;51.674;7.824;2023-12-29T12:12:01;99936.66;;;20.05;54.09
48872;BME280;36154;51.674;7.824;2023-12-29T12:14:52;99946.13;;;20.04;54.12
48872;BME280;36154;51.674;7.824;2023-12-29T12:17:34;99947.00;;;20.05;54.13
48872;BME280;36154;51.674;7.824;2023-12-29T12:20:04;99946.13;;;20.04;54.08
48872;BME280;36154;51.674;7.824;2023-12-29T12:22:31;99952.16;;;20.05;53.98
48872;BME280;36154;51.674;7.824;2023-12-29T12:24:58;99947.78;;;20.07;54.10
48872;BME280;36154;51.674;7.824;2023-12-29T12:27:27;99947.78;;;20.07;53.86
48872;BME280;36154;51.674;7.824;2023-12-29T12:29:54;99944.28;;;20.08;53.83
48872;BME280;36154;51.674;7.824;2023-12-29T12:32:26;99939.91;;;20.10;53.53
48872;BME280;36154;51.674;7.824;2023-12-29T12:34:52;99940.75;;;20.10;53.61
48872;BME280;36154;51.674;7.824;2023-12-29T12:37:25;99943.28;;;20.12;53.64
48872;BME280;36154;51.674;7.824;2023-12-29T12:39:51;99939.03;;;20.09;53.92
48872;BME280;36154;51.674;7.824;2023-12-29T12:42:17;99932.06;;;20.11;53.90
48872;BME280;36154;51.674;7.824;2023-12-29T12:44:56;99932.94;;;20.12;53.69
48872;BME280;36154;51.674;7.824;2023-12-29T12:47:51;99934.59;;;20.13;53.82
48872;BME280;36154;51.674;7.824;2023-12-29T12:50:17;99925.94;;;20.14;53.90
48872;BME280;36154;51.674;7.824;2023-12-29T12:52:43;99931.13;;;20.14;53.88
48872;BME280;36154;51.674;7.824;2023-12-29T12:55:09;99927.63;;;20.15;53.97
48872;BME280;36154;51.674;7.824;2023-12-29T12:57:36;99919.88;;;20.15;53.97
48872;BME280;36154;51.674;7.824;2023-12-29T13:00:03;99910.44;;;20.14;54.11
48872;BME280;36154;51.674;7.824;2023-12-29T13:02:29;99917.28;;;20.15;53.90